Time;durP1;ratioP1;P1;durP2;ratioP2;P2;SDS_P1;SDS_P2;PMS_P1;PMS_P2;Temp;Humidity;BMP_temperature;BMP_pressure;BME280_temperature;BME280_humidity;BME280_pressure;Samples;Min_cycle;Max_cycle;Signal;HPM_P1;HPM_P2
2022/11/27 00:01:23;;;;;;;86.00;38.55;;;;;;;1.68;89.79;100393.05;1778687;81;21043;-44
2022/11/27 00:03:49;;;;;;;81.53;37.55;;;;;;;1.69;90.04;100393.45;1778885;81;20991;-49
2022/11/27 00:06:19;;;;;;;83.85;40.35;;;;;;;1.73;90.29;100392.61;1778823;81;20988;-49
2022/11/27 00:08:46;;;;;;;86.45;39.73;;;;;;;1.76;89.99;100384.80;1778827;80;20991;-44
2022/11/27 00:11:17;;;;;;;89.77;37.63;;;;;;;1.79;90.10;100383.51;1778939;81;21524;-48
2022/11/27 00:13:43;;;;;;;82.90;39.35;;;;;;;1.81;89.94;100376.59;1778383;80;21473;-48
2022/11/27 00:16:10;;;;;;;85.97;39.10;;;;;;;1.83;89.92;100383.92;1779031;81;20991;-50
2022/11/27 00:18:36;;;;;;;85.83;40.05;;;;;;;1.81;89.79;100380.48;1778998;80;21634;-52
2022/11/27 00:21:09;;;;;;;76.45;37.70;;;;;;;1.86;89.66;100380.03;1778896;81;21493;-51
2022/11/27 00:23:36;;;;;;;87.40;40.15;;;;;;;1.89;89.66;100378.74;1778156;80;21540;-44
2022/11/27 00:26:03;;;;;;;87.37;40.45;;;;;;;1.88;89.83;100385.23;1778889;80;21039;-51
2022/11/27 00:28:29;;;;;;;83.78;39.38;;;;;;;1.89;89.77;100382.63;1778885;80;20999;-45
2022/11/27 00:31:09;;;;;;;83.82;38.08;;;;;;;1.87;89.82;100392.16;1778806;81;21026;-46
2022/11/27 00:33:36;;;;;;;84.22;39.30;;;;;;;1.88;89.83;100391.27;1777842;80;21465;-50
2022/11/27 00:36:05;;;;;;;82.33;39.30;;;;;;;1.87;89.79;100392.56;1779066;81;21038;-47
2022/11/27 00:38:32;;;;;;;83.60;37.83;;;;;;;1.89;89.94;100389.53;1778263;80;20999;-52
2022/11/27 00:41:11;;;;;;;77.00;38.20;;;;;;;1.94;89.76;100389.53;1778888;81;21512;-45
2022/11/27 00:43:38;;;;;;;84.52;38.05;;;;;;;1.97;89.72;100385.64;1774102;81;21509;-50
2022/11/27 00:46:04;;;;;;;85.38;39.45;;;;;;;1.91;89.54;100384.78;1778819;81;20999;-55
2022/11/27 00:48:30;;;;;;;84.00;38.33;;;;;;;1.93;89.67;100393.87;1783919;80;21074;-47
2022/11/27 00:51:06;;;;;;;80.85;38.70;;;;;;;1.93;89.67;100389.98;1787124;80;21489;-49
2022/11/27 00:53:33;;;;;;;91.20;40.52;;;;;;;1.99;89.75;100384.77;1787072;80;21039;-51
2022/11/27 00:55:59;;;;;;;89.30;40.12;;;;;;;2.00;89.54;100389.51;1787485;80;21047;-43
2022/11/27 00:58:26;;;;;;;86.95;38.85;;;;;;;2.01;89.57;100389.51;1787038;80;20999;-50
2022/11/27 01:01:01;;;;;;;82.97;38.70;;;;;;;2.05;89.45;100393.81;1787333;80;20964;-54
2022/11/27 01:03:28;;;;;;;89.58;38.02;;;;;;;2.09;89.63;100395.97;1787026;80;20983;-51
2022/11/27 01:05:54;;;;;;;;;;;;;;;2.07;89.37;100391.22;1789716;80;21504;-44
2022/11/27 01:08:20;;;;;;;85.67;40.17;;;;;;;2.03;89.37;100393.40;1787036;80;20195;-52
2022/11/27 01:10:53;;;;;;;83.60;38.38;;;;;;;2.05;89.70;100387.77;1787083;80;21512;-45
2022/11/27 01:13:24;;;;;;;85.92;38.02;;;;;;;2.02;89.89;100389.06;1786928;80;20986;-50
2022/11/27 01:16:14;;;;;;;83.87;38.75;;;;;;;2.05;89.93;100390.36;1787068;80;21484;-55
2022/11/27 01:18:42;;;;;;;86.20;38.58;;;;;;;2.11;89.89;100393.81;1787007;80;21042;-48
2022/11/27 01:21:09;;;;;;;89.32;38.75;;;;;;;2.15;89.79;100394.67;1787121;80;20964;-47
2022/11/27 01:23:36;;;;;;;94.90;39.75;;;;;;;2.19;89.84;100398.12;1787129;80;21302;-49
2022/11/27 01:26:04;;;;;;;83.60;38.42;;;;;;;2.16;89.86;100394.22;1787087;80;21641;-46
2022/11/27 01:28:31;;;;;;;79.22;37.15;;;;;;;2.18;89.75;100397.23;1787034;80;21034;-45
2022/11/27 01:30:57;;;;;;;84.47;38.53;;;;;;;2.16;90.20;100386.44;1787258;80;20979;-51
2022/11/27 01:33:23;;;;;;;84.67;40.10;;;;;;;2.19;89.98;100395.08;1787035;80;21006;-44
2022/11/27 01:35:56;;;;;;;88.50;39.70;;;;;;;2.21;90.00;100401.12;1787078;80;20987;-51
2022/11/27 01:38:23;;;;;;;87.25;38.38;;;;;;;2.20;90.12;100399.83;1785723;80;21472;-50
2022/11/27 01:40:59;;;;;;;90.57;38.23;;;;;;;2.20;89.95;100398.12;1787022;80;20997;-45
2022/11/27 01:43:50;;;;;;;88.85;38.28;;;;;;;2.22;90.32;100403.27;1787011;80;21003;-48
2022/11/27 01:46:44;;;;;;;88.17;40.28;;;;;;;2.24;90.16;100410.20;1787070;80;21038;-49
2022/11/27 01:49:19;;;;;;;85.42;38.88;;;;;;;2.25;90.23;100408.02;1780197;80;21091;-49
2022/11/27 01:52:16;;;;;;;86.32;38.95;;;;;;;2.27;90.05;100405.02;1778256;80;20988;-44
2022/11/27 01:55:02;;;;;;;87.78;37.75;;;;;;;2.27;90.01;100406.72;1778760;81;21039;-50
2022/11/27 01:57:34;;;;;;;87.12;38.35;;;;;;;2.30;90.39;100407.58;1779041;81;20992;-46
2022/11/27 02:00:03;;;;;;;82.47;38.50;;;;;;;2.26;90.18;100399.83;1778730;81;21003;-53
2022/11/27 02:02:29;;;;;;;87.15;40.20;;;;;;;2.28;90.28;100405.42;1778513;80;21055;-48
2022/11/27 02:04:54;;;;;;;88.55;38.83;;;;;;;2.32;90.12;100406.72;1778910;80;21465;-48
2022/11/27 02:07:20;;;;;;;87.95;40.17;;;;;;;2.34;89.96;100410.17;1778815;80;21469;-47
2022/11/27 02:09:46;;;;;;;87.75;39.92;;;;;;;2.28;90.05;100406.72;1778749;81;20959;-53
2022/11/27 02:12:45;;;;;;;84.05;38.70;;;;;;;2.34;90.00;100406.28;1778725;81;20995;-45
2022/11/27 02:15:46;;;;;;;88.33;40.20;;;;;;;2.32;89.89;100406.72;1778564;80;20991;-44
2022/11/27 02:18:23;;;;;;;92.70;39.73;;;;;;;2.25;90.25;100408.47;1777470;80;21023;-51
2022/11/27 02:21:07;;;;;;;;;;;;;;;2.22;90.44;100408.05;1781282;81;21023;-41
2022/11/27 02:24:14;;;;;;;92.27;38.88;;;;;;;2.20;90.29;100405.02;1778405;80;20113;-43
2022/11/27 02:27:17;;;;;;;98.75;41.25;;;;;;;2.20;90.45;100412.80;1778773;81;21042;-49
2022/11/27 02:29:47;;;;;;;96.82;42.85;;;;;;;2.25;90.50;100407.17;1778796;81;21042;-47
2022/11/27 02:32:20;;;;;;;84.00;40.23;;;;;;;2.29;90.49;100404.98;1778819;81;21492;-53
2022/11/27 02:35:00;;;;;;;91.47;41.85;;;;;;;2.19;90.44;100406.76;1778735;81;20987;-42
2022/11/27 02:37:47;;;;;;;95.20;41.68;;;;;;;2.23;90.71;100412.80;1778738;81;21445;-46
2022/11/27 02:43:18;;;;;;;89.05;40.45;;;;;;;2.25;90.61;100413.66;1715411;80;21106;-45
2022/11/27 02:45:48;;;;;;;90.15;43.10;;;;;;;2.22;90.61;100409.35;1703227;83;28222;-51
2022/11/27 02:48:19;;;;;;;97.00;42.17;;;;;;;2.35;90.30;100411.47;1752753;82;21002;-40
2022/11/27 02:50:47;;;;;;;93.30;41.23;;;;;;;2.34;90.49;100415.36;1754470;82;21003;-46
2022/11/27 02:53:24;;;;;;;92.40;41.45;;;;;;;2.37;90.34;100416.66;1754490;81;21563;-46
2022/11/27 02:55:52;;;;;;;93.60;42.20;;;;;;;2.28;90.62;100413.21;1754510;81;21503;-45
2022/11/27 02:58:22;;;;;;;88.50;41.20;;;;;;;2.27;90.64;100420.59;1754453;81;20998;-52
2022/11/27 03:00:49;;;;;;;98.30;41.08;;;;;;;2.33;90.50;100418.81;1754440;81;21055;-44
2022/11/27 03:06:09;;;;;;;92.80;41.75;;;;;;;2.46;90.10;100423.97;1855920;77;23003;-54
2022/11/27 03:08:41;;;;;;;85.65;40.10;;;;;;;2.35;89.97;100420.55;1829141;78;21510;-49
2022/11/27 03:11:14;;;;;;;89.65;41.02;;;;;;;2.30;90.16;100419.70;1829522;78;20979;-46
2022/11/27 03:13:44;;;;;;;98.82;42.43;;;;;;;2.31;90.27;100426.63;1829320;78;20985;-49
2022/11/27 03:16:38;;;;;;;91.02;41.33;;;;;;;2.32;90.55;100423.59;1829408;78;21006;-49
2022/11/27 03:19:25;;;;;;;83.45;40.45;;;;;;;2.32;90.40;100424.89;1829457;78;21475;-40
2022/11/27 03:21:58;;;;;;;85.53;39.80;;;;;;;2.33;90.56;100422.70;1829484;78;21010;-52
2022/11/27 03:24:24;;;;;;;86.05;39.83;;;;;;;2.35;90.31;100417.07;1827738;78;21467;-47
2022/11/27 03:26:51;;;;;;;92.80;41.92;;;;;;;2.32;90.53;100419.26;1829566;78;20986;-43
2022/11/27 03:29:39;;;;;;;90.92;41.35;;;;;;;2.30;90.47;100415.37;1829707;78;20990;-46
2022/11/27 03:32:06;;;;;;;90.60;40.73;;;;;;;2.28;90.50;100415.81;1829390;78;20981;-53
2022/11/27 03:34:33;;;;;;;88.67;41.53;;;;;;;2.24;90.87;100419.73;1829487;78;20979;-51
2022/11/27 03:36:59;;;;;;;99.10;42.62;;;;;;;2.24;90.84;100417.14;1829456;78;20966;-50
2022/11/27 03:39:26;;;;;;;86.65;39.63;;;;;;;2.24;91.07;100415.40;1829735;78;21482;-44
2022/11/27 03:42:16;;;;;;;89.87;42.05;;;;;;;2.14;91.10;100418.02;1829547;78;21114;-48
2022/11/27 03:44:53;;;;;;;86.08;40.28;;;;;;;2.16;91.17;100413.25;1829312;78;21480;-44
2022/11/27 03:47:42;;;;;;;87.42;40.60;;;;;;;2.12;91.28;100418.02;1829641;78;20959;-48
2022/11/27 03:50:43;;;;;;;98.72;42.30;;;;;;;2.15;91.51;100418.02;1786664;78;21458;-46
2022/11/27 03:53:33;;;;;;;94.10;42.67;;;;;;;2.20;91.17;100418.88;1803613;78;21018;-49
2022/11/27 03:56:30;;;;;;;91.82;41.40;;;;;;;2.10;91.68;100413.27;1828230;78;20963;-49
2022/11/27 03:59:02;;;;;;;;;;;;;;;2.12;91.98;100407.64;1810046;78;20975;-54
2022/11/27 04:01:28;;;;;;;87.22;40.10;;;;;;;2.16;91.58;100408.50;1829334;78;20097;-48
2022/11/27 04:03:54;;;;;;;93.65;40.55;;;;;;;2.16;91.59;100408.50;1797585;78;21515;-46
2022/11/27 04:06:20;;;;;;;92.75;40.58;;;;;;;2.17;91.85;100403.31;1818144;79;20959;-49
2022/11/27 04:08:47;;;;;;;95.20;42.88;;;;;;;2.20;91.98;100405.02;1818142;79;20987;-45
2022/11/27 04:11:14;;;;;;;90.53;40.65;;;;;;;2.22;92.08;100402.86;1818382;79;21030;-41
2022/11/27 04:13:40;;;;;;;83.62;39.60;;;;;;;2.25;91.77;100408.47;1818265;79;20986;-46
2022/11/27 04:16:06;;;;;;;96.17;41.80;;;;;;;2.26;91.47;100406.31;1817785;79;21460;-42
2022/11/27 04:18:32;;;;;;;90.30;40.15;;;;;;;2.25;91.52;100401.53;1817642;79;20991;-45
2022/11/27 04:20:58;;;;;;;85.07;38.60;;;;;;;2.28;91.71;100404.13;1817556;79;21022;-49
2022/11/27 04:23:24;;;;;;;93.12;40.35;;;;;;;2.29;91.16;100401.98;1817500;79;21014;-45
2022/11/27 04:25:49;;;;;;;88.97;38.63;;;;;;;2.35;90.90;100407.98;1817502;79;20975;-46
2022/11/27 04:28:16;;;;;;;86.75;39.35;;;;;;;2.39;90.58;100401.94;1817578;79;20978;-48
2022/11/27 04:30:43;;;;;;;88.22;39.53;;;;;;;2.38;90.93;100404.09;1817840;79;21599;-49
2022/11/27 04:33:09;;;;;;;86.17;39.63;;;;;;;2.38;90.80;100407.98;1817759;79;20987;-51
2022/11/27 04:35:35;;;;;;;92.20;39.25;;;;;;;2.41;90.30;100399.75;1817547;79;20987;-47
2022/11/27 04:38:01;;;;;;;81.53;38.28;;;;;;;2.46;90.33;100406.23;1817523;79;20979;-44
2022/11/27 04:40:27;;;;;;;90.65;41.33;;;;;;;2.50;89.87;100410.09;1817546;79;21026;-48
2022/11/27 04:42:53;;;;;;;90.45;39.53;;;;;;;2.50;89.87;100410.09;1817491;79;20963;-46
2022/11/27 04:45:19;;;;;;;88.33;41.25;;;;;;;2.53;90.49;100409.23;1817456;79;20979;-46
2022/11/27 04:47:44;;;;;;;87.12;38.45;;;;;;;2.56;90.21;100407.91;1817607;79;21022;-52
2022/11/27 04:50:10;;;;;;;81.97;40.67;;;;;;;2.55;90.22;100412.69;1817508;79;21018;-49
2022/11/27 04:52:36;;;;;;;90.53;39.50;;;;;;;2.53;90.15;100410.53;1817495;79;20972;-49
2022/11/27 04:55:03;;;;;;;90.03;39.80;;;;;;;2.53;90.46;100414.43;1817498;79;20955;-44
2022/11/27 04:57:29;;;;;;;93.30;41.33;;;;;;;2.53;90.17;100413.55;1817581;79;21073;-48
2022/11/27 04:59:55;;;;;;;88.47;39.42;;;;;;;2.51;90.09;100412.28;1817438;79;20975;-51
2022/11/27 05:02:21;;;;;;;84.15;36.68;;;;;;;2.50;90.74;100408.80;1817487;79;20995;-49
2022/11/27 05:04:47;;;;;;;85.15;38.65;;;;;;;2.51;90.39;100407.09;1817526;78;20972;-39
2022/11/27 05:07:12;;;;;;;82.42;38.23;;;;;;;2.46;90.57;100405.80;1817473;79;20979;-50
2022/11/27 05:09:38;;;;;;;84.72;38.40;;;;;;;2.42;90.81;100404.09;1817524;79;20976;-42
2022/11/27 05:12:04;;;;;;;77.62;37.93;;;;;;;2.46;91.10;100398.45;1817515;79;21477;-47
2022/11/27 05:14:30;;;;;;;85.15;38.70;;;;;;;2.46;90.99;100397.16;1817442;79;20963;-47
2022/11/27 05:16:58;;;;;;;86.17;38.10;;;;;;;2.50;91.05;100402.75;1817489;79;21433;-50
2022/11/27 05:19:27;;;;;;;81.85;36.93;;;;;;;2.51;90.78;100403.19;1817551;79;21011;-44
2022/11/27 05:21:54;;;;;;;75.72;36.73;;;;;;;2.47;91.08;100405.34;1817473;79;20955;-47
2022/11/27 05:24:23;;;;;;;86.85;37.78;;;;;;;2.49;91.01;100398.41;1817492;79;21034;-39
2022/11/27 05:26:49;;;;;;;82.47;37.35;;;;;;;2.50;90.77;100392.36;1817455;79;20975;-43
2022/11/27 05:29:15;;;;;;;76.05;35.92;;;;;;;2.50;91.52;100391.92;1817550;79;22126;-46
2022/11/27 05:31:41;;;;;;;79.22;36.10;;;;;;;2.51;90.94;100390.20;1817581;79;20987;-48
2022/11/27 05:34:08;;;;;;;81.10;36.30;;;;;;;2.52;90.70;100396.25;1817475;79;21027;-48
2022/11/27 05:36:34;;;;;;;75.37;35.40;;;;;;;2.56;91.48;100397.95;1817731;79;20986;-40
2022/11/27 05:39:01;;;;;;;76.37;34.92;;;;;;;2.59;91.19;100391.46;1817461;79;20952;-47
2022/11/27 05:41:27;;;;;;;79.45;36.25;;;;;;;2.59;91.19;100391.46;1817568;79;20983;-39
2022/11/27 05:43:53;;;;;;;77.90;36.00;;;;;;;2.60;90.81;100387.98;1817539;79;21456;-46
2022/11/27 05:46:21;;;;;;;79.53;35.92;;;;;;;2.60;90.52;100386.67;1817560;79;21440;-54
2022/11/27 05:48:47;;;;;;;74.60;35.13;;;;;;;2.57;90.53;100388.87;1817514;79;20983;-48
2022/11/27 05:51:14;;;;;;;79.15;36.85;;;;;;;2.61;90.65;100386.67;1817501;79;21014;-44
2022/11/27 05:53:40;;;;;;;83.15;36.42;;;;;;;2.60;90.66;100387.56;1817687;79;21495;-49
2022/11/27 05:56:12;;;;;;;80.75;36.85;;;;;;;2.61;90.64;100393.61;1817400;79;21399;-48
2022/11/27 05:58:40;;;;;;;79.25;34.85;;;;;;;2.60;90.89;100395.35;1817595;79;20987;-46
2022/11/27 06:01:07;;;;;;;83.17;36.08;;;;;;;2.60;91.01;100392.76;1817658;79;21475;-43
2022/11/27 06:03:33;;;;;;;78.15;36.60;;;;;;;2.59;91.24;100384.97;1817620;79;21030;-52
2022/11/27 06:06:09;;;;;;;78.17;36.30;;;;;;;2.61;91.53;100384.08;1811860;79;21012;-44
2022/11/27 06:08:37;;;;;;;81.40;37.80;;;;;;;2.59;91.33;100383.67;1777772;79;21433;-50
2022/11/27 06:11:16;;;;;;;83.95;37.48;;;;;;;2.60;91.75;100383.67;1807626;79;20987;-43
2022/11/27 06:13:42;;;;;;;76.72;36.00;;;;;;;2.63;91.45;100382.33;1807067;79;21457;-49
2022/11/27 06:16:16;;;;;;;79.27;37.25;;;;;;;2.65;91.35;100378.44;1807190;79;20992;-39
2022/11/27 06:18:43;;;;;;;86.70;39.08;;;;;;;2.65;90.95;100374.54;1805376;79;21010;-50
2022/11/27 06:21:12;;;;;;;94.00;38.88;;;;;;;2.68;90.87;100370.19;1807126;79;21026;-39
2022/11/27 06:23:39;;;;;;;87.60;39.35;;;;;;;2.68;90.66;100368.89;1807383;79;21022;-49
2022/11/27 06:26:18;;;;;;;82.78;37.25;;;;;;;2.65;91.01;100356.36;1807280;79;20995;-45
2022/11/27 06:28:44;;;;;;;86.63;39.73;;;;;;;2.61;91.00;100356.81;1807257;78;20981;-47
2022/11/27 06:31:14;;;;;;;87.23;38.97;;;;;;;2.61;90.90;100361.15;1807449;79;21026;-42
2022/11/27 06:33:40;;;;;;;86.20;39.20;;;;;;;2.60;90.88;100359.00;1807142;79;20990;-44
2022/11/27 06:36:07;;;;;;;82.42;38.23;;;;;;;2.61;90.92;100358.55;1806441;79;21558;-52
2022/11/27 06:38:35;;;;;;;90.65;39.45;;;;;;;2.61;90.81;100357.25;1807320;79;21555;-52
2022/11/27 06:41:10;;;;;;;76.47;36.10;;;;;;;2.61;90.70;100362.45;1807179;79;21030;-49
2022/11/27 06:43:36;;;;;;;86.55;38.40;;;;;;;2.61;90.98;100369.80;1807179;79;20960;-52
2022/11/27 06:46:05;;;;;;;83.30;38.60;;;;;;;2.62;90.99;100371.53;1807371;78;21543;-50
2022/11/27 06:48:32;;;;;;;84.83;38.35;;;;;;;2.59;91.02;100364.19;1807154;79;21484;-46
2022/11/27 06:51:03;;;;;;;76.00;37.58;;;;;;;2.63;90.82;100364.59;1807301;79;20990;-47
2022/11/27 06:53:32;;;;;;;77.50;37.83;;;;;;;2.61;90.90;100365.90;1807198;79;21444;-50
2022/11/27 06:55:58;;;;;;;86.35;37.17;;;;;;;2.66;90.79;100367.19;1807169;79;21013;-44
2022/11/27 06:58:24;;;;;;;85.22;37.70;;;;;;;2.65;91.15;100369.34;1807193;79;21480;-44
2022/11/27 07:00:53;;;;;;;91.95;39.20;;;;;;;2.63;91.12;100374.54;1807103;79;21042;-44
2022/11/27 07:03:20;;;;;;;84.72;38.33;;;;;;;2.64;91.38;100368.94;1806483;78;21405;-55
2022/11/27 07:05:45;;;;;;;91.37;39.90;;;;;;;2.61;91.56;100371.09;1810363;79;21023;-44
2022/11/27 07:08:11;;;;;;;89.47;40.00;;;;;;;2.63;91.34;100374.54;1817378;79;21026;-43
2022/11/27 07:10:37;;;;;;;82.60;38.28;;;;;;;2.63;91.88;100375.84;1817410;79;20987;-50
2022/11/27 07:13:03;;;;;;;84.55;37.15;;;;;;;2.64;91.84;100376.28;1817403;79;20987;-46
2022/11/27 07:15:28;;;;;;;80.05;37.85;;;;;;;2.66;91.82;100374.98;1817351;79;21041;-50
2022/11/27 07:17:54;;;;;;;81.30;37.38;;;;;;;2.68;91.77;100372.78;1817425;79;21037;-47
2022/11/27 07:20:20;;;;;;;91.20;38.63;;;;;;;2.73;91.70;100377.08;1817391;79;20986;-50
2022/11/27 07:22:45;;;;;;;86.05;37.08;;;;;;;2.73;91.40;100379.27;1817399;79;20982;-47
2022/11/27 07:25:11;;;;;;;84.65;37.80;;;;;;;2.76;91.97;100379.67;1817364;79;21018;-44
2022/11/27 07:27:37;;;;;;;79.85;36.33;;;;;;;2.80;92.65;100380.96;1817438;79;21035;-50
2022/11/27 07:30:04;;;;;;;84.03;37.95;;;;;;;2.83;92.09;100380.06;1817339;79;21038;-53
2022/11/27 07:32:30;;;;;;;79.97;38.10;;;;;;;2.84;91.79;100383.10;1817629;79;21034;-49
2022/11/27 07:34:56;;;;;;;84.65;37.15;;;;;;;2.86;91.84;100390.45;1817380;79;21671;-44
2022/11/27 07:37:22;;;;;;;76.87;36.42;;;;;;;2.91;91.96;100391.28;1817471;79;21033;-50
2022/11/27 07:39:47;;;;;;;73.50;35.55;;;;;;;2.95;91.84;100392.98;1817486;79;21445;-46
2022/11/27 07:42:13;;;;;;;76.70;35.58;;;;;;;2.97;91.51;100389.94;1817377;79;21560;-48
2022/11/27 07:44:39;;;;;;;72.47;35.40;;;;;;;3.00;91.20;100387.33;1817409;79;21559;-51
2022/11/27 07:47:05;;;;;;;83.45;36.58;;;;;;;3.05;91.22;100380.34;1817461;79;20975;-52
2022/11/27 07:49:30;;;;;;;74.82;36.42;;;;;;;3.10;90.99;100384.22;1817382;79;21443;-48
2022/11/27 07:51:56;;;;;;;82.97;36.28;;;;;;;3.15;90.92;100386.35;1817511;79;20987;-55
2022/11/27 07:54:22;;;;;;;85.62;37.45;;;;;;;3.16;91.12;100382.00;1817551;79;21520;-48
2022/11/27 07:56:48;;;;;;;76.35;37.48;;;;;;;3.18;90.83;100394.10;1817452;79;21038;-48
2022/11/27 07:59:14;;;;;;;79.42;36.23;;;;;;;3.22;90.87;100385.84;1817635;79;20994;-55
2022/11/27 08:01:39;;;;;;;76.82;35.95;;;;;;;3.24;90.82;100384.12;1817557;79;21038;-49
2022/11/27 08:04:05;;;;;;;80.65;34.55;;;;;;;3.24;90.62;100381.52;1817550;79;21496;-48
2022/11/27 08:06:31;;;;;;;76.77;36.42;;;;;;;3.20;90.61;100383.28;1814951;79;21662;-43
2022/11/27 08:08:57;;;;;;;70.57;35.55;;;;;;;3.23;91.19;100378.04;1812767;79;21535;-44
2022/11/27 08:11:28;;;;;;;75.08;34.27;;;;;;;3.25;91.09;100377.59;1812639;79;21540;-44
2022/11/27 08:13:59;;;;;;;80.72;35.55;;;;;;;3.30;90.96;100378.86;1812691;79;21050;-47
2022/11/27 08:16:26;;;;;;;78.47;36.77;;;;;;;3.32;90.85;100377.55;1811464;79;21504;-54
2022/11/27 08:18:51;;;;;;;76.92;36.93;;;;;;;3.32;90.77;100381.01;1812844;79;21039;-54
2022/11/27 08:21:18;;;;;;;75.03;37.25;;;;;;;3.37;90.76;100383.14;1812634;79;21026;-45
2022/11/27 08:23:44;;;;;;;76.87;35.60;;;;;;;3.37;90.68;100381.84;1812908;79;20963;-52
2022/11/27 08:26:11;;;;;;;76.90;36.45;;;;;;;3.36;90.26;100383.14;1812630;79;21042;-49
2022/11/27 08:28:38;;;;;;;78.00;36.75;;;;;;;3.35;90.68;100385.34;1812779;79;21025;-47
2022/11/27 08:31:06;;;;;;;78.07;36.37;;;;;;;3.40;90.76;100390.04;1812977;79;21428;-43
2022/11/27 08:33:32;;;;;;;78.30;36.55;;;;;;;3.42;90.64;100389.17;1812631;79;21539;-44
2022/11/27 08:35:58;;;;;;;75.90;36.08;;;;;;;3.41;90.62;100386.58;1812684;79;20991;-48
2022/11/27 08:38:24;;;;;;;73.70;35.43;;;;;;;3.43;90.41;100391.32;1812672;79;20971;-44
2022/11/27 08:40:59;;;;;;;78.80;37.38;;;;;;;3.46;90.36;100392.61;1812596;79;21038;-55
2022/11/27 08:43:25;;;;;;;81.60;38.10;;;;;;;3.51;90.46;100392.55;1812660;79;21043;-46
2022/11/27 08:45:51;;;;;;;80.83;37.70;;;;;;;3.49;90.47;100385.20;1812884;79;20979;-44
2022/11/27 08:48:18;;;;;;;73.55;34.90;;;;;;;3.49;90.67;100389.95;1812661;78;21437;-43
2022/11/27 08:50:44;;;;;;;73.90;36.08;;;;;;;3.52;90.76;100392.98;1812635;79;21112;-51
2022/11/27 08:53:09;;;;;;;76.42;34.78;;;;;;;3.55;90.70;100395.12;1812699;79;21464;-50
2022/11/27 08:55:35;;;;;;;75.12;36.93;;;;;;;3.57;90.67;100386.87;1812668;79;20975;-51
2022/11/27 08:58:02;;;;;;;78.50;37.38;;;;;;;3.62;90.53;100394.20;1812684;79;21476;-52
2022/11/27 09:00:29;;;;;;;77.97;36.00;;;;;;;3.64;90.67;100392.89;1812851;79;21037;-53
2022/11/27 09:02:55;;;;;;;70.12;34.00;;;;;;;3.65;90.48;100400.64;1812944;79;21025;-46
2022/11/27 09:05:21;;;;;;;81.60;35.83;;;;;;;3.59;90.29;100397.27;1812683;79;20952;-53
2022/11/27 09:07:50;;;;;;;77.58;33.58;;;;;;;3.64;90.13;100408.05;1807466;79;20976;-51
2022/11/27 09:10:16;;;;;;;77.32;37.28;;;;;;;3.63;90.40;100410.66;1807320;78;20979;-50
2022/11/27 09:12:43;;;;;;;76.97;35.75;;;;;;;3.68;90.69;100405.42;1807283;79;20991;-52
2022/11/27 09:15:12;;;;;;;88.90;39.13;;;;;;;3.67;90.58;100400.64;1807376;79;20991;-49
2022/11/27 09:17:38;;;;;;;77.55;36.15;;;;;;;3.67;90.29;100399.34;1807254;79;21405;-41
2022/11/27 09:20:07;;;;;;;80.85;35.52;;;;;;;3.68;90.27;100397.17;1807371;79;21003;-59
2022/11/27 09:22:33;;;;;;;67.45;34.20;;;;;;;3.71;90.77;100408.86;1807356;79;20964;-40
2022/11/27 09:24:59;;;;;;;75.72;34.95;;;;;;;3.73;90.55;100407.52;1807523;79;21433;-52
2022/11/27 09:27:26;;;;;;;79.27;34.25;;;;;;;3.76;90.32;100405.75;1807370;79;20998;-54
2022/11/27 09:29:52;;;;;;;73.33;33.85;;;;;;;3.78;90.49;100406.63;1807313;79;20979;-48
2022/11/27 09:32:18;;;;;;;69.95;33.58;;;;;;;3.82;90.26;100404.83;1807191;79;21047;-53
2022/11/27 09:34:44;;;;;;;70.30;33.75;;;;;;;3.85;90.39;100404.36;1807149;79;20995;-52
2022/11/27 09:37:10;;;;;;;72.42;32.98;;;;;;;3.87;90.20;100399.59;1807310;79;20990;-49
2022/11/27 09:39:36;;;;;;;72.92;34.08;;;;;;;3.92;90.20;100400.41;1807205;79;21030;-45
2022/11/27 09:42:05;;;;;;;71.40;35.90;;;;;;;3.96;90.14;100402.09;1807193;79;20995;-51
2022/11/27 09:44:47;;;;;;;69.37;32.73;;;;;;;3.97;90.15;100408.59;1806825;79;21128;-48
2022/11/27 09:47:36;;;;;;;69.32;32.53;;;;;;;3.99;90.46;100400.77;1807166;79;20988;-46
2022/11/27 09:50:23;;;;;;;73.78;33.63;;;;;;;4.03;90.23;100405.91;1807216;79;20968;-57
2022/11/27 09:53:12;;;;;;;67.20;33.28;;;;;;;4.06;89.97;100400.25;1806232;78;20963;-47
2022/11/27 09:55:43;;;;;;;66.35;31.85;;;;;;;4.06;89.87;100400.25;1804918;79;20990;-52
2022/11/27 09:58:40;;;;;;;81.47;43.15;;;;;;;4.06;89.91;100403.73;1807288;79;20991;-54
2022/11/27 10:01:15;;;;;;;75.78;36.08;;;;;;;4.02;89.76;100396.81;1807210;79;20971;-48
2022/11/27 10:03:43;;;;;;;86.80;45.65;;;;;;;4.01;89.84;100393.36;1807222;79;21000;-48
2022/11/27 10:06:48;;;;;;;73.37;35.65;;;;;;;4.04;89.68;100398.99;1808337;79;20988;-46
2022/11/27 10:09:37;;;;;;;64.90;31.10;;;;;;;4.07;89.66;100396.78;1808048;79;21022;-47
2022/11/27 10:12:28;;;;;;;74.07;38.98;;;;;;;4.10;89.76;100405.42;1817436;79;20990;-51
2022/11/27 10:15:12;;;;;;;64.45;32.05;;;;;;;4.17;89.97;100387.55;1817227;79;21018;-43
2022/11/27 10:17:52;;;;;;;72.20;31.70;;;;;;;4.14;89.86;100390.18;1817448;79;20999;-46
2022/11/27 10:20:27;;;;;;;66.37;32.58;;;;;;;4.10;89.57;100384.59;1815505;79;20982;-43
2022/11/27 10:23:24;;;;;;;66.12;34.38;;;;;;;4.13;89.80;100385.87;1816774;79;20975;-47
2022/11/27 10:25:54;;;;;;;63.38;32.40;;;;;;;4.12;89.85;100388.48;1816843;79;20991;-54
2022/11/27 10:28:31;;;;;;;65.87;32.05;;;;;;;4.19;89.71;100378.43;1817424;79;21437;-45
2022/11/27 10:31:05;;;;;;;66.55;32.75;;;;;;;4.17;89.45;100374.53;1817514;79;20999;-47
2022/11/27 10:33:42;;;;;;;63.40;30.08;;;;;;;4.21;89.85;100372.76;1814073;79;20974;-51
2022/11/27 10:36:34;;;;;;;62.08;29.15;;;;;;;4.27;89.57;100364.01;1817670;79;20986;-47
2022/11/27 10:39:02;;;;;;;64.40;30.77;;;;;;;4.21;89.12;100364.50;1817425;79;20986;-52
2022/11/27 10:41:32;;;;;;;63.13;30.80;;;;;;;4.27;89.69;100367.91;1817361;79;20990;-51
2022/11/27 10:44:04;;;;;;;60.95;29.92;;;;;;;4.36;89.70;100353.47;1817377;79;21484;-48
2022/11/27 10:46:33;;;;;;;64.55;31.68;;;;;;;4.36;89.41;100350.87;1815686;79;21463;-44
2022/11/27 10:48:59;;;;;;;65.70;30.80;;;;;;;4.41;89.47;100347.77;1817383;79;21467;-53
2022/11/27 10:51:30;;;;;;;66.47;32.38;;;;;;;4.46;89.48;100345.97;1817439;79;21022;-49
2022/11/27 10:53:59;;;;;;;68.62;33.08;;;;;;;4.48;89.36;100346.81;1815806;79;20983;-46
2022/11/27 10:56:45;;;;;;;56.85;29.10;;;;;;;4.46;89.32;100346.39;1817410;79;21030;-47
2022/11/27 10:59:31;;;;;;;63.68;32.75;;;;;;;4.47;88.84;100342.47;1817409;79;21030;-47
2022/11/27 11:01:57;;;;;;;57.62;30.62;;;;;;;4.49;89.01;100345.91;1817423;79;20990;-47
2022/11/27 11:04:29;;;;;;;55.98;28.42;;;;;;;4.51;89.08;100340.69;1817459;79;21480;-52
2022/11/27 11:06:56;;;;;;;57.43;28.98;;;;;;;4.54;88.76;100340.20;1817401;79;21015;-44
2022/11/27 11:09:30;;;;;;;51.15;26.68;;;;;;;4.57;88.62;100340.17;1817526;79;20991;-47
2022/11/27 11:12:19;;;;;;;53.65;26.45;;;;;;;4.63;88.82;100335.77;1816124;79;21535;-49
2022/11/27 11:14:56;;;;;;;48.60;26.20;;;;;;;4.65;88.65;100331.38;1817361;79;20967;-43
2022/11/27 11:17:39;;;;;;;59.18;27.67;;;;;;;4.66;88.33;100326.16;1816324;79;20995;-52
2022/11/27 11:20:23;;;;;;;54.65;26.37;;;;;;;4.68;88.45;100327.44;1817398;79;21001;-49
2022/11/27 11:22:50;;;;;;;46.10;24.67;;;;;;;4.73;88.73;100325.19;1817372;79;21488;-46
2022/11/27 11:25:18;;;;;;;49.95;26.52;;;;;;;4.80;88.53;100325.94;1817581;79;20955;-50
2022/11/27 11:27:46;;;;;;;52.62;26.62;;;;;;;4.83;88.49;100318.53;1817547;79;20998;-50
2022/11/27 11:30:23;;;;;;;51.02;25.95;;;;;;;4.87;88.40;100313.23;1817551;79;20948;-51
2022/11/27 11:32:51;;;;;;;50.90;27.17;;;;;;;4.92;88.67;100319.23;1816985;79;20983;-46
2022/11/27 11:35:28;;;;;;;;;;;;;;;4.95;88.13;100313.98;1820285;79;21026;-49
2022/11/27 11:37:56;;;;;;;55.17;26.30;;;;;;;4.94;87.93;100310.95;1817837;79;20490;-48
2022/11/27 11:40:28;;;;;;;54.83;26.12;;;;;;;5.03;88.38;100317.77;1817602;79;21448;-50
2022/11/27 11:43:08;;;;;;;50.63;26.42;;;;;;;5.06;88.12;100312.94;1817563;79;20989;-49